sensor_id;sensor_type;location;lat;lon;timestamp;pressure;altitude;pressure_sealevel;temperature;humidity
67803;BME280;54601;51.378;-1.342;2022-08-18T00:00:13;100177.55;;;25.36;34.11
67803;BME280;54601;51.378;-1.342;2022-08-18T00:02:39;100177.04;;;25.34;34.26
67803;BME280;54601;51.378;-1.342;2022-08-18T00:05:04;100177.56;;;25.83;34.12
67803;BME280;54601;51.378;-1.342;2022-08-18T00:07:31;100174.98;;;25.37;34.11
67803;BME280;54601;51.378;-1.342;2022-08-18T00:09:56;100176.68;;;25.85;34.08
67803;BME280;54601;51.378;-1.342;2022-08-18T00:12:23;100176.67;;;25.64;33.68
67803;BME280;54601;51.378;-1.342;2022-08-18T00:14:47;100178.30;;;25.85;33.76
67803;BME280;54601;51.378;-1.342;2022-08-18T00:17:13;100185.13;;;25.78;33.83
67803;BME280;54601;51.378;-1.342;2022-08-18T00:19:37;100188.04;;;25.39;34.09
67803;BME280;54601;51.378;-1.342;2022-08-18T00:22:03;100193.72;;;25.47;34.01
67803;BME280;54601;51.378;-1.342;2022-08-18T00:24:29;100198.09;;;25.38;34.09
67803;BME280;54601;51.378;-1.342;2022-08-18T00:26:54;100200.40;;;25.41;33.97
67803;BME280;54601;51.378;-1.342;2022-08-18T00:29:20;100202.43;;;25.67;33.95
67803;BME280;54601;51.378;-1.342;2022-08-18T00:31:46;100207.55;;;25.23;34.24
67803;BME280;54601;51.378;-1.342;2022-08-18T00:34:11;100210.87;;;25.34;34.09
67803;BME280;54601;51.378;-1.342;2022-08-18T00:36:37;100214.66;;;25.35;34.05
67803;BME280;54601;51.378;-1.342;2022-08-18T00:39:03;100214.25;;;25.41;33.88
67803;BME280;54601;51.378;-1.342;2022-08-18T00:41:28;100216.73;;;25.34;33.99
67803;BME280;54601;51.378;-1.342;2022-08-18T00:43:54;100215.36;;;25.78;33.98
67803;BME280;54601;51.378;-1.342;2022-08-18T00:46:21;100215.70;;;25.27;34.12
67803;BME280;54601;51.378;-1.342;2022-08-18T00:48:46;100215.15;;;25.54;33.99
67803;BME280;54601;51.378;-1.342;2022-08-18T00:51:16;100210.34;;;25.40;34.19
67803;BME280;54601;51.378;-1.342;2022-08-18T00:53:38;100211.64;;;25.45;34.08
67803;BME280;54601;51.378;-1.342;2022-08-18T00:56:05;100209.74;;;24.97;34.48
67803;BME280;54601;51.378;-1.342;2022-08-18T00:58:33;100213.55;;;25.22;34.23
67803;BME280;54601;51.378;-1.342;2022-08-18T01:00:53;100212.52;;;25.48;34.02
67803;BME280;54601;51.378;-1.342;2022-08-18T01:03:21;100215.08;;;25.42;34.24
67803;BME280;54601;51.378;-1.342;2022-08-18T01:05:49;100213.41;;;25.15;34.16
67803;BME280;54601;51.378;-1.342;2022-08-18T01:08:12;100212.13;;;25.58;33.89
67803;BME280;54601;51.378;-1.342;2022-08-18T01:10:36;100212.76;;;25.63;34.26
67803;BME280;54601;51.378;-1.342;2022-08-18T01:13:01;100213.63;;;25.27;34.09
67803;BME280;54601;51.378;-1.342;2022-08-18T01:15:27;100212.01;;;25.41;34.44
67803;BME280;54601;51.378;-1.342;2022-08-18T01:17:53;100209.28;;;25.00;34.49
67803;BME280;54601;51.378;-1.342;2022-08-18T01:20:21;100205.56;;;25.11;34.31
67803;BME280;54601;51.378;-1.342;2022-08-18T01:22:53;100198.95;;;25.58;33.78
67803;BME280;54601;51.378;-1.342;2022-08-18T01:25:09;100198.26;;;25.60;34.10
67803;BME280;54601;51.378;-1.342;2022-08-18T01:27:35;100196.07;;;25.67;34.06
67803;BME280;54601;51.378;-1.342;2022-08-18T01:30:05;100194.66;;;25.58;34.20
67803;BME280;54601;51.378;-1.342;2022-08-18T01:32:26;100194.26;;;25.16;34.14
67803;BME280;54601;51.378;-1.342;2022-08-18T01:34:51;100194.60;;;25.52;34.26
67803;BME280;54601;51.378;-1.342;2022-08-18T01:37:19;100190.37;;;25.71;33.90
67803;BME280;54601;51.378;-1.342;2022-08-18T01:39:44;100191.48;;;25.55;34.16
67803;BME280;54601;51.378;-1.342;2022-08-18T01:42:08;100191.66;;;25.07;34.27
67803;BME280;54601;51.378;-1.342;2022-08-18T01:44:34;100189.94;;;25.13;34.40
67803;BME280;54601;51.378;-1.342;2022-08-18T01:46:59;100190.17;;;25.61;33.99
67803;BME280;54601;51.378;-1.342;2022-08-18T01:49:25;100186.32;;;25.60;33.99
67803;BME280;54601;51.378;-1.342;2022-08-18T01:51:51;100182.51;;;25.21;34.23
67803;BME280;54601;51.378;-1.342;2022-08-18T01:54:16;100178.75;;;25.34;34.35
67803;BME280;54601;51.378;-1.342;2022-08-18T01:56:42;100180.00;;;25.44;34.13
67803;BME280;54601;51.378;-1.342;2022-08-18T01:59:08;100183.46;;;25.05;34.55
67803;BME280;54601;51.378;-1.342;2022-08-18T02:01:37;100184.51;;;25.20;34.25
67803;BME280;54601;51.378;-1.342;2022-08-18T02:03:59;100182.83;;;25.09;34.52
67803;BME280;54601;51.378;-1.342;2022-08-18T02:06:25;100179.38;;;25.30;34.46
67803;BME280;54601;51.378;-1.342;2022-08-18T02:08:50;100179.15;;;25.44;34.32
67803;BME280;54601;51.378;-1.342;2022-08-18T02:11:16;100177.31;;;25.49;34.12
67803;BME280;54601;51.378;-1.342;2022-08-18T02:13:41;100174.44;;;25.01;34.12
67803;BME280;54601;51.378;-1.342;2022-08-18T02:16:07;100174.30;;;24.99;34.27
67803;BME280;54601;51.378;-1.342;2022-08-18T02:18:35;100174.09;;;25.57;33.96
67803;BME280;54601;51.378;-1.342;2022-08-18T02:21:05;100174.90;;;25.61;33.87
67803;BME280;54601;51.378;-1.342;2022-08-18T02:23:24;100173.83;;;25.49;34.04
67803;BME280;54601;51.378;-1.342;2022-08-18T02:25:50;100168.81;;;25.37;34.18
67803;BME280;54601;51.378;-1.342;2022-08-18T02:28:16;100161.03;;;24.99;34.13
67803;BME280;54601;51.378;-1.342;2022-08-18T02:30:41;100158.02;;;25.48;34.01
67803;BME280;54601;51.378;-1.342;2022-08-18T02:33:08;100152.78;;;25.49;34.07
67803;BME280;54601;51.378;-1.342;2022-08-18T02:35:33;100150.41;;;25.48;34.04
67803;BME280;54601;51.378;-1.342;2022-08-18T02:37:58;100152.62;;;25.01;34.43
67803;BME280;54601;51.378;-1.342;2022-08-18T02:40:23;100152.61;;;25.03;34.46
67803;BME280;54601;51.378;-1.342;2022-08-18T02:42:49;100156.66;;;25.08;34.24
67803;BME280;54601;51.378;-1.342;2022-08-18T02:45:15;100162.54;;;25.35;34.18
67803;BME280;54601;51.378;-1.342;2022-08-18T02:47:41;100162.75;;;25.57;33.95
67803;BME280;54601;51.378;-1.342;2022-08-18T02:50:07;100164.01;;;25.48;34.01
67803;BME280;54601;51.378;-1.342;2022-08-18T02:52:31;100163.68;;;25.24;34.33
67803;BME280;54601;51.378;-1.342;2022-08-18T02:54:57;100167.48;;;25.10;34.54
67803;BME280;54601;51.378;-1.342;2022-08-18T02:57:23;100169.34;;;25.07;34.64
67803;BME280;54601;51.378;-1.342;2022-08-18T02:59:48;100168.44;;;25.28;34.33
67803;BME280;54601;51.378;-1.342;2022-08-18T03:02:14;100163.87;;;25.30;33.82
67803;BME280;54601;51.378;-1.342;2022-08-18T03:04:40;100162.12;;;25.21;34.24
67803;BME280;54601;51.378;-1.342;2022-08-18T03:07:06;100161.71;;;24.78;34.66
67803;BME280;54601;51.378;-1.342;2022-08-18T03:09:32;100163.40;;;25.09;34.57
67803;BME280;54601;51.378;-1.342;2022-08-18T03:11:57;100164.90;;;25.25;34.41
67803;BME280;54601;51.378;-1.342;2022-08-18T03:14:22;100164.09;;;24.86;34.51
67803;BME280;54601;51.378;-1.342;2022-08-18T03:16:48;100160.71;;;25.06;34.68
67803;BME280;54601;51.378;-1.342;2022-08-18T03:19:14;100158.77;;;25.12;34.42
67803;BME280;54601;51.378;-1.342;2022-08-18T03:21:39;100161.86;;;24.97;34.67
67803;BME280;54601;51.378;-1.342;2022-08-18T03:24:05;100161.08;;;25.13;34.50
67803;BME280;54601;51.378;-1.342;2022-08-18T03:26:32;100159.84;;;25.23;34.32
67803;BME280;54601;51.378;-1.342;2022-08-18T03:28:57;100157.38;;;25.20;34.40
67803;BME280;54601;51.378;-1.342;2022-08-18T03:31:23;100155.90;;;25.15;34.52
67803;BME280;54601;51.378;-1.342;2022-08-18T03:33:48;100155.83;;;24.84;34.62
67803;BME280;54601;51.378;-1.342;2022-08-18T03:36:15;100153.85;;;24.86;34.85
67803;BME280;54601;51.378;-1.342;2022-08-18T03:38:39;100154.90;;;25.33;34.53
67803;BME280;54601;51.378;-1.342;2022-08-18T03:41:05;100152.31;;;25.13;34.40
67803;BME280;54601;51.378;-1.342;2022-08-18T03:43:30;100149.99;;;25.17;34.31
67803;BME280;54601;51.378;-1.342;2022-08-18T03:45:59;100146.35;;;25.13;34.36
67803;BME280;54601;51.378;-1.342;2022-08-18T03:48:21;100144.45;;;25.12;34.41
67803;BME280;54601;51.378;-1.342;2022-08-18T03:50:47;100147.16;;;25.04;34.54
67803;BME280;54601;51.378;-1.342;2022-08-18T03:53:13;100150.28;;;25.15;34.37
67803;BME280;54601;51.378;-1.342;2022-08-18T03:55:39;100149.27;;;25.15;34.39
67803;BME280;54601;51.378;-1.342;2022-08-18T03:58:04;100148.85;;;25.05;34.49
67803;BME280;54601;51.378;-1.342;2022-08-18T04:00:30;100147.26;;;24.93;34.62
67803;BME280;54601;51.378;-1.342;2022-08-18T04:02:56;100145.53;;;24.95;34.63
67803;BME280;54601;51.378;-1.342;2022-08-18T04:05:21;100146.70;;;24.62;34.76
67803;BME280;54601;51.378;-1.342;2022-08-18T04:07:46;100147.68;;;25.13;34.45
67803;BME280;54601;51.378;-1.342;2022-08-18T04:10:12;100146.45;;;24.67;34.81
67803;BME280;54601;51.378;-1.342;2022-08-18T04:12:40;100147.33;;;24.91;34.77
67803;BME280;54601;51.378;-1.342;2022-08-18T04:15:04;100147.79;;;24.96;34.65
67803;BME280;54601;51.378;-1.342;2022-08-18T04:17:29;100145.76;;;25.15;34.74
67803;BME280;54601;51.378;-1.342;2022-08-18T04:19:55;100144.45;;;24.75;34.66
67803;BME280;54601;51.378;-1.342;2022-08-18T04:22:21;100144.25;;;25.15;34.33
67803;BME280;54601;51.378;-1.342;2022-08-18T04:24:46;100144.83;;;25.08;34.50
67803;BME280;54601;51.378;-1.342;2022-08-18T04:27:12;100145.64;;;24.88;34.33
67803;BME280;54601;51.378;-1.342;2022-08-18T04:29:37;100145.18;;;24.92;34.75
67803;BME280;54601;51.378;-1.342;2022-08-18T04:32:03;100143.59;;;25.16;34.36
67803;BME280;54601;51.378;-1.342;2022-08-18T04:34:29;100145.02;;;25.10;34.45
67803;BME280;54601;51.378;-1.342;2022-08-18T04:36:54;100144.69;;;25.11;34.20
67803;BME280;54601;51.378;-1.342;2022-08-18T04:39:20;100143.22;;;24.99;34.49
67803;BME280;54601;51.378;-1.342;2022-08-18T04:41:45;100143.55;;;24.82;34.53
67803;BME280;54601;51.378;-1.342;2022-08-18T04:44:11;100144.00;;;24.94;34.56
67803;BME280;54601;51.378;-1.342;2022-08-18T04:46:38;100150.93;;;25.12;34.20
67803;BME280;54601;51.378;-1.342;2022-08-18T04:49:02;100154.09;;;25.16;34.20
67803;BME280;54601;51.378;-1.342;2022-08-18T04:51:28;100157.27;;;24.97;34.53
67803;BME280;54601;51.378;-1.342;2022-08-18T04:53:54;100158.82;;;24.78;34.88
67803;BME280;54601;51.378;-1.342;2022-08-18T04:56:22;100157.79;;;24.83;34.27
67803;BME280;54601;51.378;-1.342;2022-08-18T04:58:45;100160.44;;;25.09;34.24
67803;BME280;54601;51.378;-1.342;2022-08-18T05:01:10;100163.97;;;24.94;34.54
67803;BME280;54601;51.378;-1.342;2022-08-18T05:03:36;100162.09;;;24.92;34.62
67803;BME280;54601;51.378;-1.342;2022-08-18T05:06:03;100157.97;;;24.95;34.08
67803;BME280;54601;51.378;-1.342;2022-08-18T05:08:27;100153.54;;;25.00;34.44
67803;BME280;54601;51.378;-1.342;2022-08-18T05:10:53;100152.17;;;24.84;34.68
67803;BME280;54601;51.378;-1.342;2022-08-18T05:13:18;100151.90;;;24.95;34.50
67803;BME280;54601;51.378;-1.342;2022-08-18T05:15:44;100152.15;;;24.95;34.46
67803;BME280;54601;51.378;-1.342;2022-08-18T05:18:10;100151.74;;;24.98;34.36
67803;BME280;54601;51.378;-1.342;2022-08-18T05:20:36;100149.62;;;25.09;34.32
67803;BME280;54601;51.378;-1.342;2022-08-18T05:23:01;100149.84;;;25.15;34.13
67803;BME280;54601;51.378;-1.342;2022-08-18T05:25:26;100152.71;;;24.93;34.54
67803;BME280;54601;51.378;-1.342;2022-08-18T05:27:52;100148.27;;;24.99;33.96
67803;BME280;54601;51.378;-1.342;2022-08-18T05:30:18;100145.86;;;24.97;34.45
67803;BME280;54601;51.378;-1.342;2022-08-18T05:32:44;100145.94;;;24.83;34.53
67803;BME280;54601;51.378;-1.342;2022-08-18T05:35:12;100147.67;;;24.91;34.91
67803;BME280;54601;51.378;-1.342;2022-08-18T05:37:39;100143.45;;;24.85;34.60
67803;BME280;54601;51.378;-1.342;2022-08-18T05:40:03;100144.70;;;25.10;34.29
67803;BME280;54601;51.378;-1.342;2022-08-18T05:42:29;100143.64;;;25.20;34.36
67803;BME280;54601;51.378;-1.342;2022-08-18T05:44:53;100144.02;;;25.31;34.23
67803;BME280;54601;51.378;-1.342;2022-08-18T05:47:22;100147.26;;;25.23;34.34
67803;BME280;54601;51.378;-1.342;2022-08-18T05:49:44;100149.26;;;25.16;34.33
67803;BME280;54601;51.378;-1.342;2022-08-18T05:52:13;100150.76;;;25.02;34.60
67803;BME280;54601;51.378;-1.342;2022-08-18T05:54:38;100154.79;;;24.72;34.70
67803;BME280;54601;51.378;-1.342;2022-08-18T05:57:02;100157.87;;;24.98;34.73
67803;BME280;54601;51.378;-1.342;2022-08-18T05:59:32;100158.55;;;25.03;34.59
67803;BME280;54601;51.378;-1.342;2022-08-18T06:01:57;100157.36;;;25.03;34.52
67803;BME280;54601;51.378;-1.342;2022-08-18T06:04:23;100158.74;;;25.02;34.58
67803;BME280;54601;51.378;-1.342;2022-08-18T06:06:43;100157.18;;;24.85;34.58
67803;BME280;54601;51.378;-1.342;2022-08-18T06:09:12;100153.40;;;25.04;34.42
67803;BME280;54601;51.378;-1.342;2022-08-18T06:11:33;100157.00;;;24.75;35.05
67803;BME280;54601;51.378;-1.342;2022-08-18T06:13:59;100156.26;;;24.96;34.56
67803;BME280;54601;51.378;-1.342;2022-08-18T06:16:31;100156.88;;;25.04;34.45
67803;BME280;54601;51.378;-1.342;2022-08-18T06:18:55;100158.26;;;24.94;34.79
67803;BME280;54601;51.378;-1.342;2022-08-18T06:21:27;100159.80;;;24.70;34.64
67803;BME280;54601;51.378;-1.342;2022-08-18T06:23:48;100156.58;;;25.24;34.38
67803;BME280;54601;51.378;-1.342;2022-08-18T06:26:16;100161.18;;;25.09;34.38
67803;BME280;54601;51.378;-1.342;2022-08-18T06:28:41;100158.95;;;25.11;34.18
67803;BME280;54601;51.378;-1.342;2022-08-18T06:31:04;100155.59;;;24.93;34.33
67803;BME280;54601;51.378;-1.342;2022-08-18T06:33:36;100151.50;;;25.31;34.22
67803;BME280;54601;51.378;-1.342;2022-08-18T06:35:52;100152.34;;;25.20;34.39
67803;BME280;54601;51.378;-1.342;2022-08-18T06:38:29;100153.24;;;25.18;34.33
67803;BME280;54601;51.378;-1.342;2022-08-18T06:40:41;100150.58;;;25.18;34.37
67803;BME280;54601;51.378;-1.342;2022-08-18T06:43:11;100145.36;;;25.07;34.62
67803;BME280;54601;51.378;-1.342;2022-08-18T06:45:35;100147.46;;;25.32;34.26
67803;BME280;54601;51.378;-1.342;2022-08-18T06:48:02;100150.23;;;25.25;34.37
67803;BME280;54601;51.378;-1.342;2022-08-18T06:50:27;100152.21;;;25.10;34.57
67803;BME280;54601;51.378;-1.342;2022-08-18T06:52:51;100151.02;;;25.35;34.55
67803;BME280;54601;51.378;-1.342;2022-08-18T06:55:17;100153.59;;;24.98;34.77
67803;BME280;54601;51.378;-1.342;2022-08-18T07:00:19;100156.78;;;25.20;34.55
67803;BME280;54601;51.378;-1.342;2022-08-18T07:02:39;100155.92;;;25.15;34.49
67803;BME280;54601;51.378;-1.342;2022-08-18T07:04:59;100155.07;;;25.47;34.18
67803;BME280;54601;51.378;-1.342;2022-08-18T07:07:30;100155.54;;;25.22;34.38
67803;BME280;54601;51.378;-1.342;2022-08-18T07:09:48;100155.95;;;25.25;34.35
67803;BME280;54601;51.378;-1.342;2022-08-18T07:12:20;100157.05;;;25.29;34.42
67803;BME280;54601;51.378;-1.342;2022-08-18T07:14:42;100156.41;;;25.49;34.26
67803;BME280;54601;51.378;-1.342;2022-08-18T07:17:07;100156.76;;;25.24;34.51
67803;BME280;54601;51.378;-1.342;2022-08-18T07:19:31;100158.20;;;25.17;34.55
67803;BME280;54601;51.378;-1.342;2022-08-18T07:22:02;100159.27;;;25.41;34.38
67803;BME280;54601;51.378;-1.342;2022-08-18T07:24:27;100162.51;;;24.93;34.74
67803;BME280;54601;51.378;-1.342;2022-08-18T07:26:57;100162.91;;;25.04;34.87
67803;BME280;54601;51.378;-1.342;2022-08-18T07:29:14;100168.70;;;25.00;34.87
67803;BME280;54601;51.378;-1.342;2022-08-18T07:31:41;100169.01;;;25.02;34.90
67803;BME280;54601;51.378;-1.342;2022-08-18T07:34:09;100169.43;;;25.03;34.94
67803;BME280;54601;51.378;-1.342;2022-08-18T07:36:33;100168.09;;;25.10;34.86
67803;BME280;54601;51.378;-1.342;2022-08-18T07:39:02;100167.60;;;24.77;34.79
67803;BME280;54601;51.378;-1.342;2022-08-18T07:41:25;100168.22;;;25.09;34.80
67803;BME280;54601;51.378;-1.342;2022-08-18T07:43:57;100164.24;;;25.32;34.58
67803;BME280;54601;51.378;-1.342;2022-08-18T07:46:20;100162.09;;;25.35;34.46
67803;BME280;54601;51.378;-1.342;2022-08-18T07:48:38;100164.56;;;25.44;34.35
67803;BME280;54601;51.378;-1.342;2022-08-18T07:51:09;100166.01;;;25.20;34.74
67803;BME280;54601;51.378;-1.342;2022-08-18T07:53:38;100166.32;;;25.48;34.51
67803;BME280;54601;51.378;-1.342;2022-08-18T07:55:59;100165.56;;;25.66;34.43
67803;BME280;54601;51.378;-1.342;2022-08-18T07:58:25;100164.50;;;25.48;34.43
67803;BME280;54601;51.378;-1.342;2022-08-18T08:00:50;100162.05;;;25.65;33.57
67803;BME280;54601;51.378;-1.342;2022-08-18T08:03:22;100164.07;;;25.62;33.80
67803;BME280;54601;51.378;-1.342;2022-08-18T08:05:43;100171.73;;;25.76;34.07
67803;BME280;54601;51.378;-1.342;2022-08-18T08:08:12;100176.04;;;25.59;34.24
67803;BME280;54601;51.378;-1.342;2022-08-18T08:10:34;100176.63;;;25.51;34.36
67803;BME280;54601;51.378;-1.342;2022-08-18T08:13:00;100176.36;;;25.66;34.28
67803;BME280;54601;51.378;-1.342;2022-08-18T08:15:25;100174.34;;;25.63;34.46
67803;BME280;54601;51.378;-1.342;2022-08-18T08:17:51;100169.87;;;25.42;34.51
67803;BME280;54601;51.378;-1.342;2022-08-18T08:20:18;100170.69;;;25.62;34.46
67803;BME280;54601;51.378;-1.342;2022-08-18T08:22:41;100170.19;;;25.64;34.64
67803;BME280;54601;51.378;-1.342;2022-08-18T08:25:09;100170.12;;;25.59;34.70
67803;BME280;54601;51.378;-1.342;2022-08-18T08:27:38;100169.58;;;25.68;34.75
67803;BME280;54601;51.378;-1.342;2022-08-18T08:29:59;100172.31;;;25.71;35.17
67803;BME280;54601;51.378;-1.342;2022-08-18T08:32:23;100170.53;;;25.69;34.96
67803;BME280;54601;51.378;-1.342;2022-08-18T08:34:50;100170.81;;;25.72;35.05
67803;BME280;54601;51.378;-1.342;2022-08-18T08:37:17;100169.98;;;25.76;34.92
67803;BME280;54601;51.378;-1.342;2022-08-18T08:39:40;100169.47;;;25.77;35.08
67803;BME280;54601;51.378;-1.342;2022-08-18T08:42:08;100168.98;;;25.82;34.98
67803;BME280;54601;51.378;-1.342;2022-08-18T08:44:31;100169.49;;;25.61;35.28
67803;BME280;54601;51.378;-1.342;2022-08-18T08:46:57;100168.49;;;25.73;35.78
67803;BME280;54601;51.378;-1.342;2022-08-18T08:49:27;100170.52;;;25.44;36.05
67803;BME280;54601;51.378;-1.342;2022-08-18T08:51:48;100171.40;;;25.68;35.59
67803;BME280;54601;51.378;-1.342;2022-08-18T08:54:15;100169.49;;;25.30;35.70
67803;BME280;54601;51.378;-1.342;2022-08-18T08:56:41;100170.59;;;25.77;35.75
67803;BME280;54601;51.378;-1.342;2022-08-18T08:59:05;100171.54;;;25.69;35.79
67803;BME280;54601;51.378;-1.342;2022-08-18T09:01:31;100170.46;;;25.73;36.29
67803;BME280;54601;51.378;-1.342;2022-08-18T09:03:57;100172.11;;;25.74;36.00
67803;BME280;54601;51.378;-1.342;2022-08-18T09:06:23;100173.31;;;25.74;35.92
67803;BME280;54601;51.378;-1.342;2022-08-18T09:08:55;100174.49;;;25.70;36.05
67803;BME280;54601;51.378;-1.342;2022-08-18T09:11:21;100171.32;;;25.69;35.85
67803;BME280;54601;51.378;-1.342;2022-08-18T09:13:50;100172.05;;;25.63;36.11
67803;BME280;54601;51.378;-1.342;2022-08-18T09:16:08;100173.11;;;25.66;36.46
67803;BME280;54601;51.378;-1.342;2022-08-18T09:18:38;100172.03;;;25.77;36.08
67803;BME280;54601;51.378;-1.342;2022-08-18T09:20:59;100172.30;;;25.35;35.46
67803;BME280;54601;51.378;-1.342;2022-08-18T09:23:19;100171.12;;;25.70;36.32
67803;BME280;54601;51.378;-1.342;2022-08-18T09:25:46;100173.04;;;25.48;36.10
67803;BME280;54601;51.378;-1.342;2022-08-18T09:28:11;100178.30;;;25.76;36.04
67803;BME280;54601;51.378;-1.342;2022-08-18T09:30:40;100181.73;;;25.51;36.34
67803;BME280;54601;51.378;-1.342;2022-08-18T09:33:09;100180.07;;;25.36;36.12
67803;BME280;54601;51.378;-1.342;2022-08-18T09:35:36;100182.25;;;25.72;36.40
67803;BME280;54601;51.378;-1.342;2022-08-18T09:37:54;100179.07;;;25.25;36.00
67803;BME280;54601;51.378;-1.342;2022-08-18T09:40:18;100178.10;;;25.58;35.68
67803;BME280;54601;51.378;-1.342;2022-08-18T09:42:49;100174.77;;;25.40;35.68
67803;BME280;54601;51.378;-1.342;2022-08-18T09:45:10;100174.88;;;25.72;35.70
67803;BME280;54601;51.378;-1.342;2022-08-18T09:54:52;100174.59;;;25.76;36.29
67803;BME280;54601;51.378;-1.342;2022-08-18T09:57:19;100177.43;;;25.78;36.51
67803;BME280;54601;51.378;-1.342;2022-08-18T09:59:51;100173.24;;;25.48;36.60
67803;BME280;54601;51.378;-1.342;2022-08-18T10:02:09;100174.59;;;25.45;36.62
67803;BME280;54601;51.378;-1.342;2022-08-18T10:04:34;100169.05;;;25.93;36.10
67803;BME280;54601;51.378;-1.342;2022-08-18T10:09:30;100164.59;;;25.96;36.31
67803;BME280;54601;51.378;-1.342;2022-08-18T10:11:59;100164.94;;;25.97;36.67
67803;BME280;54601;51.378;-1.342;2022-08-18T10:14:29;100162.08;;;26.03;36.72
67803;BME280;54601;51.378;-1.342;2022-08-18T10:16:48;100152.79;;;25.71;36.65
67803;BME280;54601;51.378;-1.342;2022-08-18T10:19:13;100151.89;;;25.78;37.12
67803;BME280;54601;51.378;-1.342;2022-08-18T10:24:11;100148.63;;;25.83;37.15
67803;BME280;54601;51.378;-1.342;2022-08-18T10:28:55;100143.62;;;26.21;37.11
67803;BME280;54601;51.378;-1.342;2022-08-18T10:31:14;100141.24;;;26.04;36.95
67803;BME280;54601;51.378;-1.342;2022-08-18T10:36:05;100136.19;;;26.23;36.81
67803;BME280;54601;51.378;-1.342;2022-08-18T10:38:41;100128.46;;;26.05;36.78
67803;BME280;54601;51.378;-1.342;2022-08-18T10:41:00;100124.58;;;25.82;36.72
67803;BME280;54601;51.378;-1.342;2022-08-18T10:43:30;100124.13;;;25.63;36.43
67803;BME280;54601;51.378;-1.342;2022-08-18T10:45:51;100120.47;;;26.17;36.25
67803;BME280;54601;51.378;-1.342;2022-08-18T10:48:19;100124.37;;;25.93;36.29
67803;BME280;54601;51.378;-1.342;2022-08-18T10:50:43;100122.95;;;25.86;36.23
67803;BME280;54601;51.378;-1.342;2022-08-18T10:53:09;100122.23;;;26.29;35.86
67803;BME280;54601;51.378;-1.342;2022-08-18T10:55:38;100120.72;;;26.21;35.84
67803;BME280;54601;51.378;-1.342;2022-08-18T10:58:09;100122.01;;;26.08;35.77
67803;BME280;54601;51.378;-1.342;2022-08-18T11:00:22;100121.15;;;25.96;35.78
67803;BME280;54601;51.378;-1.342;2022-08-18T11:03:00;100114.86;;;26.13;36.02
67803;BME280;54601;51.378;-1.342;2022-08-18T11:05:17;100110.91;;;26.49;35.68
67803;BME280;54601;51.378;-1.342;2022-08-18T11:07:38;100108.90;;;26.02;35.84
67803;BME280;54601;51.378;-1.342;2022-08-18T11:12:37;100114.54;;;26.00;35.76
67803;BME280;54601;51.378;-1.342;2022-08-18T11:15:05;100119.27;;;25.96;35.80
67803;BME280;54601;51.378;-1.342;2022-08-18T11:17:32;100119.73;;;26.02;35.78
67803;BME280;54601;51.378;-1.342;2022-08-18T11:19:46;100122.53;;;26.20;35.79
67803;BME280;54601;51.378;-1.342;2022-08-18T11:22:21;100123.63;;;26.29;35.63
67803;BME280;54601;51.378;-1.342;2022-08-18T11:24:43;100122.88;;;26.06;35.70
67803;BME280;54601;51.378;-1.342;2022-08-18T11:27:04;100118.93;;;26.08;35.55
67803;BME280;54601;51.378;-1.342;2022-08-18T11:29:32;100116.46;;;25.83;35.59
67803;BME280;54601;51.378;-1.342;2022-08-18T11:31:59;100122.98;;;26.22;35.61
67803;BME280;54601;51.378;-1.342;2022-08-18T11:34:27;100119.26;;;26.08;35.54
67803;BME280;54601;51.378;-1.342;2022-08-18T11:36:54;100119.46;;;26.17;35.36
67803;BME280;54601;51.378;-1.342;2022-08-18T11:39:11;100121.64;;;26.08;35.50
67803;BME280;54601;51.378;-1.342;2022-08-18T11:41:36;100119.31;;;26.33;35.38
67803;BME280;54601;51.378;-1.342;2022-08-18T11:44:01;100119.11;;;26.21;35.24
67803;BME280;54601;51.378;-1.342;2022-08-18T11:46:31;100115.90;;;26.38;35.42
67803;BME280;54601;51.378;-1.342;2022-08-18T11:48:52;100113.33;;;26.08;35.46
67803;BME280;54601;51.378;-1.342;2022-08-18T11:51:20;100110.55;;;26.09;35.50
67803;BME280;54601;51.378;-1.342;2022-08-18T11:53:51;100108.86;;;26.19;35.23
67803;BME280;54601;51.378;-1.342;2022-08-18T11:56:15;100107.73;;;26.18;35.16
67803;BME280;54601;51.378;-1.342;2022-08-18T11:58:39;100108.12;;;26.59;35.18
67803;BME280;54601;51.378;-1.342;2022-08-18T12:01:00;100111.87;;;26.06;35.29
67803;BME280;54601;51.378;-1.342;2022-08-18T12:03:30;100115.96;;;26.52;35.25
67803;BME280;54601;51.378;-1.342;2022-08-18T12:05:53;100115.46;;;26.13;35.11
67803;BME280;54601;51.378;-1.342;2022-08-18T12:08:19;100111.71;;;26.19;34.96
67803;BME280;54601;51.378;-1.342;2022-08-18T12:10:41;100107.49;;;26.15;35.01
67803;BME280;54601;51.378;-1.342;2022-08-18T12:13:07;100105.42;;;26.31;34.85
67803;BME280;54601;51.378;-1.342;2022-08-18T12:15:34;100104.36;;;26.56;34.95
67803;BME280;54601;51.378;-1.342;2022-08-18T12:17:58;100096.74;;;26.29;35.14
67803;BME280;54601;51.378;-1.342;2022-08-18T12:20:23;100099.03;;;26.24;35.11
67803;BME280;54601;51.378;-1.342;2022-08-18T12:22:50;100099.79;;;26.34;35.05
67803;BME280;54601;51.378;-1.342;2022-08-18T12:25:17;100098.04;;;26.40;34.95
67803;BME280;54601;51.378;-1.342;2022-08-18T12:27:40;100095.11;;;26.45;34.95
67803;BME280;54601;51.378;-1.342;2022-08-18T12:30:08;100092.78;;;26.58;35.02
67803;BME280;54601;51.378;-1.342;2022-08-18T12:32:32;100092.67;;;26.45;35.04
67803;BME280;54601;51.378;-1.342;2022-08-18T12:34:56;100089.54;;;26.41;35.04
67803;BME280;54601;51.378;-1.342;2022-08-18T12:37:24;100088.80;;;26.41;34.86
67803;BME280;54601;51.378;-1.342;2022-08-18T12:39:48;100088.06;;;26.68;34.78
67803;BME280;54601;51.378;-1.342;2022-08-18T12:42:13;100084.61;;;26.55;34.77
67803;BME280;54601;51.378;-1.342;2022-08-18T12:44:38;100082.35;;;26.45;34.71
67803;BME280;54601;51.378;-1.342;2022-08-18T12:47:10;100080.46;;;26.43;34.68
67803;BME280;54601;51.378;-1.342;2022-08-18T12:49:30;100082.37;;;26.54;34.56
67803;BME280;54601;51.378;-1.342;2022-08-18T12:51:56;100070.56;;;26.49;34.68